createdAt,value
2019-05-10T00:00:40.800Z,11.40
2019-05-10T00:03:30.316Z,11.45
2019-05-10T00:06:28.425Z,11.50
2019-05-10T00:08:59.226Z,11.50
2019-05-10T00:11:43.409Z,11.42
2019-05-10T00:14:30.802Z,11.39
2019-05-10T00:17:16.598Z,11.32
2019-05-10T00:19:48.798Z,11.33
2019-05-10T00:22:22.010Z,11.33
2019-05-10T00:25:04.023Z,11.35
2019-05-10T00:27:27.497Z,11.35
2019-05-10T00:29:59.306Z,11.36
2019-05-10T00:32:31.370Z,11.35
2019-05-10T00:35:03.415Z,11.33
2019-05-10T00:37:35.498Z,11.31
2019-05-10T00:40:09.074Z,11.31
2019-05-10T00:42:40.969Z,11.30
2019-05-10T00:45:12.898Z,11.25
2019-05-10T00:47:44.727Z,11.13
2019-05-10T00:50:17.445Z,11.01
2019-05-10T00:52:50.281Z,10.94
2019-05-10T00:55:22.032Z,10.99
2019-05-10T00:57:53.952Z,11.01
2019-05-10T01:00:25.710Z,11.00
2019-05-10T01:02:57.571Z,11.02
2019-05-10T01:05:29.529Z,11.01
2019-05-10T01:08:01.347Z,11.00
2019-05-10T01:10:33.254Z,10.97
2019-05-10T01:13:05.156Z,10.96
2019-05-10T01:15:36.933Z,10.93
2019-05-10T01:18:08.771Z,10.91
2019-05-10T01:20:40.931Z,10.86
2019-05-10T01:23:12.910Z,10.81
2019-05-10T01:25:45.586Z,10.78
2019-05-10T01:28:17.519Z,10.74
2019-05-10T01:30:49.624Z,10.75
2019-05-10T01:33:21.680Z,10.76
2019-05-10T01:35:53.819Z,10.76
2019-05-10T01:38:25.803Z,10.75
2019-05-10T01:40:57.613Z,10.74
2019-05-10T01:43:29.498Z,10.73
2019-05-10T01:46:01.265Z,10.72
2019-05-10T01:48:33.251Z,10.70
2019-05-10T01:51:05.298Z,10.67
2019-05-10T01:53:37.198Z,10.68
2019-05-10T01:56:08.979Z,10.64
2019-05-10T01:58:40.803Z,10.63
2019-05-10T02:01:12.586Z,10.60
2019-05-10T02:03:44.464Z,10.58
2019-05-10T02:06:16.606Z,10.57
2019-05-10T02:08:48.657Z,10.55
2019-05-10T02:11:21.637Z,10.54
2019-05-10T02:13:53.711Z,10.53
2019-05-10T02:16:25.540Z,10.54
2019-05-10T02:18:57.530Z,10.53
2019-05-10T02:21:29.698Z,10.53
2019-05-10T02:24:01.660Z,10.52
2019-05-10T02:26:33.445Z,10.53
2019-05-10T02:29:05.700Z,10.52
2019-05-10T02:31:37.532Z,10.53
2019-05-10T02:34:09.727Z,10.53
2019-05-10T02:36:41.696Z,10.50
2019-05-10T02:39:13.765Z,10.48
2019-05-10T02:41:45.537Z,10.46
2019-05-10T02:44:17.402Z,10.46
2019-05-10T02:46:49.168Z,10.46
2019-05-10T02:49:21.004Z,10.46
2019-05-10T02:51:53.075Z,10.45
2019-05-10T02:54:24.932Z,10.46
2019-05-10T02:56:58.625Z,10.48
2019-05-10T02:59:33.736Z,10.46
2019-05-10T03:02:08.467Z,10.40
2019-05-10T03:04:40.563Z,10.42
2019-05-10T03:07:12.941Z,10.41
2019-05-10T03:09:49.809Z,10.42
2019-05-10T03:12:26.896Z,10.42
2019-05-10T03:15:01.016Z,10.38
2019-05-10T03:17:32.982Z,10.39
2019-05-10T03:20:05.089Z,10.39
2019-05-10T03:22:44.758Z,10.42
2019-05-10T03:25:16.953Z,10.43
2019-05-10T03:27:48.813Z,10.40
2019-05-10T03:30:21.001Z,10.41
2019-05-10T03:32:52.816Z,10.37
2019-05-10T03:35:25.119Z,10.37
2019-05-10T03:37:57.768Z,10.39
2019-05-10T03:40:30.173Z,10.43
2019-05-10T03:43:01.983Z,10.42
2019-05-10T03:45:33.771Z,10.45
2019-05-10T03:48:05.621Z,10.46
2019-05-10T03:50:37.810Z,10.50
2019-05-10T03:53:09.762Z,10.52
2019-05-10T03:55:41.870Z,10.55
2019-05-10T03:58:13.893Z,10.56
2019-05-10T04:00:45.899Z,10.57
2019-05-10T04:03:17.682Z,10.59
2019-05-10T04:05:49.538Z,10.54
2019-05-10T04:08:21.309Z,10.51
2019-05-10T04:10:53.855Z,10.48
2019-05-10T04:13:25.661Z,10.50
2019-05-10T04:15:57.476Z,10.56
2019-05-10T04:18:29.293Z,10.57
2019-05-10T04:21:01.143Z,10.59
2019-05-10T04:23:33.139Z,10.62
2019-05-10T04:26:05.080Z,10.68
2019-05-10T04:28:36.833Z,10.75
2019-05-10T04:31:09.041Z,10.79
2019-05-10T04:33:40.842Z,10.78
2019-05-10T04:36:13.181Z,10.79
2019-05-10T04:38:45.419Z,10.73
2019-05-10T04:41:17.325Z,10.73
2019-05-10T04:43:49.154Z,10.84
2019-05-10T04:46:21.307Z,10.88
2019-05-10T04:48:53.262Z,10.86
2019-05-10T04:51:25.156Z,10.97
2019-05-10T04:53:57.167Z,10.98
2019-05-10T04:56:29.028Z,11.08
2019-05-10T04:59:00.893Z,11.17
2019-05-10T05:01:32.910Z,11.26
2019-05-10T05:04:06.545Z,11.30
2019-05-10T05:06:38.482Z,11.29
2019-05-10T05:09:10.297Z,11.26
2019-05-10T05:11:42.572Z,11.34
2019-05-10T05:14:14.403Z,11.42
2019-05-10T05:16:46.230Z,11.49
2019-05-10T05:19:18.015Z,11.55
2019-05-10T05:21:49.902Z,11.62
2019-05-10T05:24:23.135Z,11.69
2019-05-10T05:26:59.714Z,11.72
2019-05-10T05:29:33.189Z,11.73
2019-05-10T05:32:05.271Z,11.73
2019-05-10T05:34:37.096Z,11.76
2019-05-10T05:37:09.069Z,11.76
2019-05-10T05:39:41.235Z,11.83
2019-05-10T05:42:13.067Z,11.90
2019-05-10T05:44:45.698Z,11.95
2019-05-10T05:47:17.791Z,11.88
2019-05-10T05:49:49.637Z,12.02
2019-05-10T05:52:21.701Z,12.01
2019-05-10T05:54:57.500Z,12.10
2019-05-10T05:57:29.594Z,12.15
2019-05-10T06:00:04.220Z,12.29
2019-05-10T06:02:44.239Z,12.32
2019-05-10T06:05:08.319Z,12.49
2019-05-10T06:07:40.466Z,12.65
2019-05-10T06:10:16.928Z,12.66
2019-05-10T06:12:52.680Z,12.84
2019-05-10T06:15:29.033Z,12.83
2019-05-10T06:17:57.742Z,12.92
2019-05-10T06:20:30.849Z,13.05
2019-05-10T06:23:07.091Z,13.18
2019-05-10T06:25:40.099Z,13.32
2019-05-10T06:28:25.852Z,13.34
2019-05-10T06:30:43.684Z,13.65
2019-05-10T06:33:15.861Z,13.82
2019-05-10T06:35:47.635Z,13.89
2019-05-10T06:38:19.518Z,13.99
2019-05-10T06:40:51.637Z,14.05
2019-05-10T06:56:54.454Z,14.94
2019-05-10T06:59:26.415Z,14.72
2019-05-10T07:01:58.493Z,14.82
2019-05-10T07:04:35.040Z,14.75
2019-05-10T07:07:10.405Z,14.65
2019-05-10T07:10:01.608Z,14.28
2019-05-10T07:12:15.511Z,14.19
2019-05-10T07:14:46.648Z,14.45
2019-05-10T07:17:19.067Z,14.42
2019-05-10T07:19:54.895Z,14.61
2019-05-10T07:22:27.040Z,14.72
2019-05-10T07:25:04.242Z,14.54
2019-05-10T07:27:36.902Z,14.31
2019-05-10T07:30:09.623Z,14.46
2019-05-10T07:32:41.714Z,14.48
2019-05-10T07:35:13.654Z,14.29
2019-05-10T07:37:47.666Z,14.21
2019-05-10T07:40:19.015Z,14.46
2019-05-10T07:42:50.955Z,14.69
2019-05-10T07:45:25.552Z,14.68
2019-05-10T07:47:56.572Z,14.78
2019-05-10T07:50:28.736Z,14.70
2019-05-10T07:53:00.800Z,14.61
2019-05-10T07:55:32.591Z,14.30
2019-05-10T07:58:06.723Z,14.11
2019-05-10T08:00:44.494Z,13.75
2019-05-10T08:03:16.774Z,13.55
2019-05-10T08:05:46.156Z,13.60
2019-05-10T08:08:19.353Z,13.24
2019-05-10T08:10:51.184Z,13.29
2019-05-10T08:13:25.142Z,13.51
2019-05-10T08:15:56.760Z,13.42
2019-05-10T08:18:29.294Z,13.27
2019-05-10T08:21:03.222Z,13.27
2019-05-10T08:23:35.238Z,13.46
2019-05-10T08:26:10.926Z,14.13
2019-05-10T08:28:44.498Z,14.31
2019-05-10T08:31:14.257Z,14.57
2019-05-10T08:33:56.246Z,15.01
2019-05-10T08:36:21.797Z,15.37
2019-05-10T08:39:05.008Z,15.58
2019-05-10T08:41:27.346Z,15.68
2019-05-10T08:43:59.189Z,15.64
2019-05-10T08:46:40.113Z,15.69
2019-05-10T08:49:06.272Z,15.68
2019-05-10T08:51:43.829Z,15.80
2019-05-10T08:54:12.200Z,15.25
2019-05-10T08:56:46.770Z,14.46
2019-05-10T08:59:23.613Z,14.56
2019-05-10T09:01:53.700Z,14.54
2019-05-10T09:04:25.178Z,14.46
2019-05-10T09:06:59.802Z,14.48
2019-05-10T09:09:33.705Z,14.46
2019-05-10T09:12:09.045Z,14.38
2019-05-10T09:14:37.956Z,14.39
2019-05-10T09:17:14.785Z,14.56
2019-05-10T09:19:44.327Z,14.77
2019-05-10T09:22:16.793Z,15.07
2019-05-10T09:24:49.974Z,15.08
2019-05-10T09:27:23.017Z,15.20
2019-05-10T09:29:55.166Z,15.44
2019-05-10T09:32:28.801Z,15.53
2019-05-10T09:35:07.859Z,15.42
2019-05-10T09:37:34.542Z,15.06
2019-05-10T09:40:09.913Z,15.24
2019-05-10T09:42:43.473Z,15.51
2019-05-10T09:45:16.170Z,15.81
2019-05-10T09:47:48.077Z,15.85
2019-05-10T09:50:22.972Z,15.94
2019-05-10T09:52:55.212Z,15.77
2019-05-10T09:55:28.004Z,15.75
2019-05-10T09:58:00.172Z,15.75
2019-05-10T10:00:37.964Z,15.37
2019-05-10T10:03:12.748Z,15.11
2019-05-10T10:05:43.642Z,14.72
2019-05-10T10:08:17.642Z,15.10
2019-05-10T10:10:49.814Z,14.82
2019-05-10T10:13:39.062Z,14.61
2019-05-10T10:15:55.385Z,14.52
2019-05-10T10:18:28.414Z,14.29
2019-05-10T10:21:00.395Z,14.39
2019-05-10T10:23:34.909Z,14.75
2019-05-10T10:26:07.193Z,14.83
2019-05-10T10:28:39.841Z,14.68
2019-05-10T10:31:26.135Z,14.63
2019-05-10T10:33:57.381Z,14.72
2019-05-10T10:36:19.305Z,14.98
2019-05-10T10:38:51.172Z,15.08
2019-05-10T10:41:31.319Z,14.66
2019-05-10T10:43:58.378Z,14.52
2019-05-10T10:46:30.414Z,14.15
2019-05-10T10:49:02.223Z,14.14
2019-05-10T10:51:34.767Z,14.32
2019-05-10T10:54:07.489Z,14.15
2019-05-10T10:56:40.001Z,14.17
2019-05-10T10:59:11.847Z,14.29
2019-05-10T11:01:49.902Z,14.20
2019-05-10T11:04:17.520Z,14.21
2019-05-10T11:06:49.609Z,14.32
2019-05-10T11:09:21.690Z,14.42
2019-05-10T11:11:53.871Z,14.56
2019-05-10T11:14:25.647Z,14.71
2019-05-10T11:16:57.595Z,14.78
2019-05-10T11:19:31.582Z,14.70
2019-05-10T11:22:09.736Z,14.50
2019-05-10T11:24:36.614Z,14.98
2019-05-10T11:27:13.093Z,15.36
2019-05-10T11:29:42.199Z,15.23
2019-05-10T11:32:16.541Z,15.22
2019-05-10T11:34:47.671Z,15.29
2019-05-10T11:37:31.070Z,15.40
2019-05-10T11:39:53.345Z,15.49
2019-05-10T11:42:25.391Z,15.32
2019-05-10T11:44:57.219Z,15.12
2019-05-10T11:47:31.169Z,15.16
2019-05-10T11:50:06.314Z,15.57
2019-05-10T11:52:36.579Z,15.83
2019-05-10T11:55:11.465Z,16.00
2019-05-10T11:57:44.166Z,15.92
2019-05-10T12:00:25.601Z,16.00
2019-05-10T12:03:11.307Z,16.12
2019-05-10T12:05:26.769Z,16.11
2019-05-10T12:07:57.030Z,16.19
2019-05-10T12:10:32.079Z,16.42
2019-05-10T12:13:15.170Z,16.64
2019-05-10T12:15:36.970Z,17.03
2019-05-10T12:18:14.292Z,17.37
2019-05-10T12:20:54.801Z,17.68
2019-05-10T12:23:22.445Z,17.95
2019-05-10T12:26:17.832Z,17.83
2019-05-10T12:28:28.546Z,17.95
2019-05-10T12:30:57.115Z,18.25
2019-05-10T12:33:31.541Z,18.55
2019-05-10T12:36:02.787Z,18.67
2019-05-10T12:38:35.918Z,18.18
2019-05-10T12:41:08.605Z,18.25
2019-05-10T12:43:43.536Z,18.16
2019-05-10T12:46:14.212Z,18.06
2019-05-10T12:48:46.111Z,18.17
2019-05-10T12:51:17.906Z,18.12
2019-05-10T12:53:52.180Z,18.15
2019-05-10T12:56:23.824Z,18.30
2019-05-10T12:58:59.459Z,18.29
2019-05-10T13:01:31.960Z,18.42
2019-05-10T13:04:13.470Z,18.59
2019-05-10T13:06:38.062Z,18.76
2019-05-10T13:09:10.152Z,18.93
2019-05-10T13:11:42.374Z,19.00
2019-05-10T13:14:14.333Z,19.29
2019-05-10T13:16:46.209Z,19.66
2019-05-10T13:19:20.005Z,20.04
2019-05-10T13:21:53.676Z,21.97
2019-05-10T13:24:25.169Z,26.41
2019-05-10T13:26:57.170Z,29.58
2019-05-10T13:29:29.010Z,31.76
2019-05-10T13:32:00.822Z,34.08
2019-05-10T13:34:32.800Z,34.43
2019-05-10T13:37:05.654Z,34.80
2019-05-10T13:39:37.713Z,36.04
2019-05-10T13:42:09.889Z,38.07
2019-05-10T13:44:42.777Z,38.77
2019-05-10T13:47:16.490Z,38.78
2019-05-10T13:49:49.149Z,40.13
2019-05-10T13:52:21.281Z,40.91
2019-05-10T13:54:53.502Z,41.95
2019-05-10T13:57:25.437Z,42.52
2019-05-10T13:59:57.577Z,42.70
2019-05-10T14:02:32.909Z,42.47
2019-05-10T14:05:03.157Z,39.78
2019-05-10T14:07:35.082Z,35.97
2019-05-10T14:10:07.506Z,32.29
2019-05-10T14:12:39.612Z,29.51
2019-05-10T14:15:13.717Z,27.75
2019-05-10T14:17:45.789Z,29.44
2019-05-10T14:20:25.111Z,28.64
2019-05-10T14:22:55.831Z,27.33
2019-05-10T14:25:29.660Z,26.26
2019-05-10T14:28:00.263Z,25.45
2019-05-10T14:30:32.470Z,26.46
2019-05-10T14:33:08.605Z,29.14
2019-05-10T14:35:38.114Z,30.78
2019-05-10T14:38:10.624Z,32.01
2019-05-10T14:40:42.879Z,33.07
2019-05-10T14:43:14.873Z,34.26
2019-05-10T14:45:46.796Z,35.05
2019-05-10T14:48:28.128Z,35.46
2019-05-10T14:50:52.101Z,35.78
2019-05-10T14:53:25.466Z,35.56
2019-05-10T14:55:57.398Z,35.92
2019-05-10T14:58:29.487Z,36.02
2019-05-10T15:01:01.456Z,36.69
2019-05-10T15:03:35.293Z,37.11
2019-05-10T15:06:07.035Z,37.65
2019-05-10T15:08:39.321Z,37.20
2019-05-10T15:11:11.116Z,37.78
2019-05-10T15:13:42.925Z,38.94
2019-05-10T15:16:25.754Z,39.76
2019-05-10T15:18:49.851Z,39.87
2019-05-10T15:21:21.954Z,40.10
2019-05-10T15:23:55.406Z,39.13
2019-05-10T15:26:27.531Z,39.26
2019-05-10T15:28:59.594Z,38.15
2019-05-10T15:31:31.431Z,36.41
2019-05-10T15:34:05.120Z,36.46
2019-05-10T15:36:36.961Z,36.91
2019-05-10T15:39:09.259Z,36.77
2019-05-10T15:41:41.254Z,36.40
2019-05-10T15:44:13.308Z,35.07
2019-05-10T15:46:45.286Z,34.83
2019-05-10T15:49:22.634Z,34.61
2019-05-10T15:51:56.823Z,34.07
2019-05-10T15:54:24.047Z,34.19
2019-05-10T15:56:56.075Z,33.18
2019-05-10T15:59:28.236Z,32.22
2019-05-10T16:02:00.062Z,31.69
2019-05-10T16:04:31.915Z,31.60
2019-05-10T16:07:03.833Z,31.69
2019-05-10T16:09:35.653Z,30.74
2019-05-10T16:12:08.740Z,29.64
2019-05-10T16:14:44.974Z,28.78
2019-05-10T16:17:17.030Z,28.30
2019-05-10T16:19:50.405Z,27.65
2019-05-10T16:22:25.243Z,27.06
2019-05-10T16:25:00.521Z,26.00
2019-05-10T16:27:34.088Z,24.93
2019-05-10T16:30:02.847Z,24.27
2019-05-10T16:32:36.306Z,23.83
2019-05-10T16:35:12.654Z,23.24
2019-05-10T16:37:42.682Z,22.99
2019-05-10T16:40:15.224Z,23.01
2019-05-10T16:42:47.082Z,23.15
2019-05-10T16:45:19.655Z,23.07
2019-05-10T16:47:51.461Z,23.26
2019-05-10T16:50:26.061Z,22.98
2019-05-10T16:52:59.370Z,22.35
2019-05-10T16:55:30.518Z,21.76
2019-05-10T16:58:03.502Z,21.19
2019-05-10T17:00:40.654Z,20.40
2019-05-10T17:03:13.164Z,19.95
2019-05-10T17:05:53.016Z,19.62
2019-05-10T17:08:17.532Z,19.36
2019-05-10T17:10:49.419Z,19.16
2019-05-10T17:13:21.400Z,18.90
2019-05-10T17:15:53.536Z,18.68
2019-05-10T17:18:25.668Z,18.29
2019-05-10T17:20:57.471Z,18.30
2019-05-10T17:23:29.522Z,18.14
2019-05-10T17:26:01.363Z,18.03
2019-05-10T17:28:35.246Z,17.82
2019-05-10T17:31:08.177Z,17.68
2019-05-10T17:33:42.552Z,17.54
2019-05-10T17:36:19.847Z,17.34
2019-05-10T17:38:53.582Z,17.26
2019-05-10T17:41:24.613Z,17.17
2019-05-10T17:43:55.899Z,17.10
2019-05-10T17:46:27.998Z,16.98
2019-05-10T17:49:00.017Z,16.88
2019-05-10T17:51:31.855Z,16.74
2019-05-10T17:54:03.862Z,16.68
2019-05-10T17:56:38.746Z,16.61
2019-05-10T17:59:11.976Z,16.49
2019-05-10T18:01:43.441Z,16.37
2019-05-10T18:04:15.793Z,16.24
2019-05-10T18:06:47.571Z,16.11
2019-05-10T18:09:19.441Z,15.99
2019-05-10T18:11:51.373Z,15.87
2019-05-10T18:14:23.531Z,15.75
2019-05-10T18:16:55.593Z,15.62
2019-05-10T18:19:27.558Z,15.48
2019-05-10T18:22:05.531Z,15.34
2019-05-10T18:24:36.279Z,15.25
2019-05-10T18:27:06.868Z,15.16
2019-05-10T18:29:38.820Z,15.09
2019-05-10T18:32:11.282Z,15.02
2019-05-10T18:34:43.316Z,14.92
2019-05-10T18:37:15.805Z,14.82
2019-05-10T18:39:52.993Z,14.77
2019-05-10T18:42:25.225Z,14.66
2019-05-10T18:44:55.971Z,14.53
2019-05-10T18:47:28.656Z,14.42
2019-05-10T18:50:00.709Z,14.33
2019-05-10T18:52:32.655Z,14.26
2019-05-10T18:55:05.196Z,14.17
2019-05-10T18:57:37.191Z,14.08
2019-05-10T19:00:10.313Z,13.98
2019-05-10T19:02:42.183Z,13.87
2019-05-10T19:05:14.713Z,13.78
2019-05-10T19:07:46.703Z,13.71
2019-05-10T19:10:18.772Z,13.66
2019-05-10T19:12:59.924Z,13.61
2019-05-10T19:15:25.595Z,13.57
2019-05-10T19:17:57.684Z,13.51
2019-05-10T19:20:29.868Z,13.44
2019-05-10T19:23:05.188Z,13.41
2019-05-10T19:25:37.644Z,13.37
2019-05-10T19:28:09.532Z,13.30
2019-05-10T19:30:41.809Z,13.20
2019-05-10T19:33:15.047Z,13.11
2019-05-10T19:35:47.360Z,13.01
2019-05-10T19:38:19.293Z,12.94
2019-05-10T19:40:51.559Z,12.87
2019-05-10T19:43:24.304Z,12.81
2019-05-10T19:45:57.558Z,12.79
2019-05-10T19:48:35.457Z,12.76
2019-05-10T19:51:09.622Z,12.71
2019-05-10T19:53:42.450Z,12.63
2019-05-10T19:56:10.808Z,12.54
2019-05-10T19:58:42.607Z,12.45
2019-05-10T20:01:14.742Z,12.34
2019-05-10T20:03:46.645Z,12.31
2019-05-10T20:06:18.594Z,12.31
2019-05-10T20:08:50.676Z,12.30
2019-05-10T20:11:22.772Z,12.31
2019-05-10T20:13:54.628Z,12.28
2019-05-10T20:16:26.484Z,12.23
2019-05-10T20:18:58.497Z,12.16
2019-05-10T20:21:33.121Z,12.12
2019-05-10T20:24:05.066Z,12.07
2019-05-10T20:26:37.366Z,12.04
2019-05-10T20:29:09.329Z,12.03
2019-05-10T20:31:41.291Z,12.03
2019-05-10T20:34:13.291Z,12.06
2019-05-10T20:36:45.324Z,12.07
2019-05-10T20:39:17.271Z,12.08
2019-05-10T20:41:49.585Z,12.07
2019-05-10T20:44:21.960Z,12.03
2019-05-10T20:46:54.136Z,12.01
2019-05-10T20:49:26.136Z,11.97
2019-05-10T20:51:58.222Z,11.93
2019-05-10T20:54:30.365Z,11.89
2019-05-10T20:57:03.020Z,11.88
2019-05-10T20:59:35.048Z,11.92
2019-05-10T21:02:07.002Z,11.93
2019-05-10T21:04:38.952Z,11.93
2019-05-10T21:07:11.057Z,11.89
2019-05-10T21:09:42.868Z,11.83
2019-05-10T21:12:16.172Z,11.84
2019-05-10T21:14:47.970Z,11.84
2019-05-10T21:17:20.031Z,11.83
2019-05-10T21:19:51.803Z,11.80
2019-05-10T21:22:23.953Z,11.76
2019-05-10T21:24:55.791Z,11.71
2019-05-10T21:27:28.315Z,11.64
2019-05-10T21:30:00.222Z,11.59
2019-05-10T21:32:32.752Z,11.57
2019-05-10T21:35:05.327Z,11.49
2019-05-10T21:37:37.345Z,11.40
2019-05-10T21:40:09.893Z,11.36
2019-05-10T21:42:42.117Z,11.29
2019-05-10T21:45:14.478Z,11.26
2019-05-10T21:47:51.613Z,11.20
2019-05-10T21:50:19.926Z,11.16
2019-05-10T21:52:51.923Z,11.12
2019-05-10T21:55:23.695Z,11.10
2019-05-10T21:57:55.921Z,10.99
2019-05-10T22:00:31.295Z,10.95
2019-05-10T22:03:04.444Z,10.93
2019-05-10T22:05:36.266Z,10.88
2019-05-10T22:08:08.338Z,10.87
2019-05-10T22:10:40.386Z,10.92
2019-05-10T22:13:14.287Z,10.90
2019-05-10T22:15:46.158Z,10.92
2019-05-10T22:18:17.958Z,10.94
2019-05-10T22:20:49.764Z,10.96
2019-05-10T22:23:21.750Z,11.01
2019-05-10T22:25:53.573Z,11.04
2019-05-10T22:28:25.550Z,11.08
2019-05-10T22:30:57.415Z,11.11
2019-05-10T22:33:29.499Z,11.13
2019-05-10T22:36:01.327Z,11.15
2019-05-10T22:38:33.135Z,11.18
2019-05-10T22:41:04.919Z,11.23
2019-05-10T22:43:37.441Z,11.28
2019-05-10T22:46:09.343Z,11.30
2019-05-10T22:48:41.237Z,11.29
2019-05-10T22:51:13.166Z,11.30
2019-05-10T22:53:58.595Z,11.26
2019-05-10T22:56:18.975Z,11.17
2019-05-10T22:58:51.220Z,11.18
2019-05-10T23:01:23.056Z,11.22
2019-05-10T23:03:54.955Z,11.23
2019-05-10T23:06:26.813Z,11.35
2019-05-10T23:08:58.686Z,11.40
2019-05-10T23:11:30.489Z,11.45
2019-05-10T23:14:02.847Z,11.51
2019-05-10T23:16:34.737Z,11.59
2019-05-10T23:19:06.542Z,11.64
2019-05-10T23:21:38.324Z,11.70
2019-05-10T23:24:13.735Z,11.72
2019-05-10T23:26:45.877Z,11.77
2019-05-10T23:29:18.321Z,11.79
2019-05-10T23:31:50.139Z,11.82
2019-05-10T23:34:22.271Z,11.88
2019-05-10T23:36:54.170Z,11.92
2019-05-10T23:39:39.745Z,11.97
2019-05-10T23:42:00.362Z,12.01
2019-05-10T23:44:32.217Z,12.08
2019-05-10T23:47:04.069Z,12.12
2019-05-10T23:49:36.187Z,12.17
2019-05-10T23:52:08.040Z,12.15
2019-05-10T23:54:39.960Z,12.23
2019-05-10T23:57:11.726Z,12.26
2019-05-10T23:59:43.723Z,12.27
